sensor_id;sensor_type;location;lat;lon;timestamp;P1;durP1;ratioP1;P2;durP2;ratioP2
65613;SDS011;52283;49.292;10.572;2022-10-31T00:00:07;25.45;;;11.85;;
65613;SDS011;52283;49.292;10.572;2022-10-31T00:02:36;25.30;;;11.57;;
65613;SDS011;52283;49.292;10.572;2022-10-31T00:05:03;26.10;;;11.23;;
65613;SDS011;52283;49.292;10.572;2022-10-31T00:07:30;22.60;;;13.10;;
65613;SDS011;52283;49.292;10.572;2022-10-31T00:09:57;32.38;;;13.65;;
65613;SDS011;52283;49.292;10.572;2022-10-31T00:12:24;32.22;;;13.57;;
65613;SDS011;52283;49.292;10.572;2022-10-31T00:14:51;27.95;;;11.90;;
65613;SDS011;52283;49.292;10.572;2022-10-31T00:17:18;20.88;;;10.32;;
65613;SDS011;52283;49.292;10.572;2022-10-31T00:19:44;19.63;;;10.95;;
65613;SDS011;52283;49.292;10.572;2022-10-31T00:22:11;27.55;;;12.23;;
65613;SDS011;52283;49.292;10.572;2022-10-31T00:24:37;24.73;;;12.65;;
65613;SDS011;52283;49.292;10.572;2022-10-31T00:27:05;21.08;;;12.13;;
65613;SDS011;52283;49.292;10.572;2022-10-31T00:29:31;23.23;;;12.52;;
65613;SDS011;52283;49.292;10.572;2022-10-31T00:31:58;28.77;;;11.70;;
65613;SDS011;52283;49.292;10.572;2022-10-31T00:34:24;26.02;;;11.50;;
65613;SDS011;52283;49.292;10.572;2022-10-31T00:36:51;20.13;;;11.30;;
65613;SDS011;52283;49.292;10.572;2022-10-31T00:39:17;17.73;;;10.57;;
65613;SDS011;52283;49.292;10.572;2022-10-31T00:41:44;19.48;;;10.00;;
65613;SDS011;52283;49.292;10.572;2022-10-31T00:44:11;23.08;;;12.48;;
65613;SDS011;52283;49.292;10.572;2022-10-31T00:46:38;20.05;;;10.65;;
65613;SDS011;52283;49.292;10.572;2022-10-31T00:49:04;18.88;;;9.95;;
65613;SDS011;52283;49.292;10.572;2022-10-31T00:51:31;20.60;;;8.68;;
65613;SDS011;52283;49.292;10.572;2022-10-31T00:53:57;16.10;;;8.52;;
65613;SDS011;52283;49.292;10.572;2022-10-31T00:56:23;16.02;;;8.52;;
65613;SDS011;52283;49.292;10.572;2022-10-31T00:58:50;16.08;;;8.50;;
65613;SDS011;52283;49.292;10.572;2022-10-31T01:01:18;14.13;;;7.55;;
65613;SDS011;52283;49.292;10.572;2022-10-31T01:03:44;13.80;;;8.02;;
65613;SDS011;52283;49.292;10.572;2022-10-31T01:06:11;14.80;;;7.70;;
65613;SDS011;52283;49.292;10.572;2022-10-31T01:08:39;13.40;;;7.80;;
65613;SDS011;52283;49.292;10.572;2022-10-31T01:11:06;18.17;;;8.57;;
65613;SDS011;52283;49.292;10.572;2022-10-31T01:13:36;11.98;;;7.28;;
65613;SDS011;52283;49.292;10.572;2022-10-31T01:16:03;18.95;;;8.35;;
65613;SDS011;52283;49.292;10.572;2022-10-31T01:18:34;14.00;;;7.88;;
65613;SDS011;52283;49.292;10.572;2022-10-31T01:21:01;14.93;;;8.68;;
65613;SDS011;52283;49.292;10.572;2022-10-31T01:23:29;11.85;;;6.55;;
65613;SDS011;52283;49.292;10.572;2022-10-31T01:26:03;8.82;;;5.28;;
65613;SDS011;52283;49.292;10.572;2022-10-31T01:28:32;10.30;;;5.97;;
65613;SDS011;52283;49.292;10.572;2022-10-31T01:31:00;8.65;;;5.65;;
65613;SDS011;52283;49.292;10.572;2022-10-31T01:33:27;10.45;;;5.85;;
65613;SDS011;52283;49.292;10.572;2022-10-31T01:35:55;10.98;;;6.05;;
65613;SDS011;52283;49.292;10.572;2022-10-31T01:38:22;9.40;;;5.85;;
65613;SDS011;52283;49.292;10.572;2022-10-31T01:40:49;10.98;;;5.85;;
65613;SDS011;52283;49.292;10.572;2022-10-31T01:43:16;13.18;;;6.63;;
65613;SDS011;52283;49.292;10.572;2022-10-31T01:45:42;11.93;;;6.15;;
65613;SDS011;52283;49.292;10.572;2022-10-31T01:48:14;14.75;;;7.75;;
65613;SDS011;52283;49.292;10.572;2022-10-31T01:50:43;8.50;;;6.10;;
65613;SDS011;52283;49.292;10.572;2022-10-31T01:53:14;14.88;;;7.40;;
65613;SDS011;52283;49.292;10.572;2022-10-31T01:55:42;15.02;;;6.95;;
65613;SDS011;52283;49.292;10.572;2022-10-31T01:58:12;10.68;;;6.50;;
65613;SDS011;52283;49.292;10.572;2022-10-31T02:00:41;12.18;;;6.85;;
65613;SDS011;52283;49.292;10.572;2022-10-31T02:05:38;14.70;;;8.00;;
65613;SDS011;52283;49.292;10.572;2022-10-31T02:08:06;13.60;;;7.68;;
65613;SDS011;52283;49.292;10.572;2022-10-31T02:10:39;13.55;;;7.60;;
65613;SDS011;52283;49.292;10.572;2022-10-31T02:13:06;14.68;;;7.68;;
65613;SDS011;52283;49.292;10.572;2022-10-31T02:15:33;16.25;;;7.50;;
65613;SDS011;52283;49.292;10.572;2022-10-31T02:18:01;15.73;;;7.97;;
65613;SDS011;52283;49.292;10.572;2022-10-31T02:20:30;22.92;;;8.30;;
65613;SDS011;52283;49.292;10.572;2022-10-31T02:23:08;15.13;;;7.28;;
65613;SDS011;52283;49.292;10.572;2022-10-31T02:25:51;14.82;;;7.20;;
65613;SDS011;52283;49.292;10.572;2022-10-31T02:28:36;15.32;;;7.88;;
65613;SDS011;52283;49.292;10.572;2022-10-31T02:31:22;14.75;;;6.72;;
65613;SDS011;52283;49.292;10.572;2022-10-31T02:33:57;10.00;;;6.40;;
65613;SDS011;52283;49.292;10.572;2022-10-31T02:36:30;9.68;;;5.95;;
65613;SDS011;52283;49.292;10.572;2022-10-31T02:39:07;9.95;;;6.10;;
65613;SDS011;52283;49.292;10.572;2022-10-31T02:41:41;8.30;;;5.85;;
65613;SDS011;52283;49.292;10.572;2022-10-31T02:44:15;9.35;;;4.45;;
65613;SDS011;52283;49.292;10.572;2022-10-31T02:46:50;9.90;;;5.60;;
65613;SDS011;52283;49.292;10.572;2022-10-31T02:49:24;10.02;;;4.68;;
65613;SDS011;52283;49.292;10.572;2022-10-31T02:51:56;7.43;;;5.47;;
65613;SDS011;52283;49.292;10.572;2022-10-31T02:54:23;8.35;;;5.35;;
65613;SDS011;52283;49.292;10.572;2022-10-31T02:56:52;11.70;;;5.68;;
65613;SDS011;52283;49.292;10.572;2022-10-31T02:59:22;13.00;;;5.95;;
65613;SDS011;52283;49.292;10.572;2022-10-31T03:07:55;15.10;;;7.47;;
65613;SDS011;52283;49.292;10.572;2022-10-31T03:10:31;12.82;;;6.38;;
65613;SDS011;52283;49.292;10.572;2022-10-31T03:13:05;10.85;;;6.85;;
65613;SDS011;52283;49.292;10.572;2022-10-31T03:15:36;13.48;;;6.18;;
65613;SDS011;52283;49.292;10.572;2022-10-31T03:18:06;13.63;;;6.18;;
65613;SDS011;52283;49.292;10.572;2022-10-31T03:20:37;13.10;;;5.90;;
65613;SDS011;52283;49.292;10.572;2022-10-31T03:23:10;11.05;;;5.65;;
65613;SDS011;52283;49.292;10.572;2022-10-31T03:25:39;24.50;;;7.07;;
65613;SDS011;52283;49.292;10.572;2022-10-31T03:28:07;10.15;;;6.60;;
65613;SDS011;52283;49.292;10.572;2022-10-31T03:30:38;10.45;;;6.20;;
65613;SDS011;52283;49.292;10.572;2022-10-31T03:33:09;8.13;;;6.13;;
65613;SDS011;52283;49.292;10.572;2022-10-31T03:35:41;10.93;;;5.70;;
65613;SDS011;52283;49.292;10.572;2022-10-31T03:40:37;11.20;;;6.63;;
65613;SDS011;52283;49.292;10.572;2022-10-31T03:43:08;11.75;;;6.43;;
65613;SDS011;52283;49.292;10.572;2022-10-31T03:45:39;12.35;;;6.93;;
65613;SDS011;52283;49.292;10.572;2022-10-31T03:48:09;10.13;;;6.22;;
65613;SDS011;52283;49.292;10.572;2022-10-31T03:50:38;13.15;;;7.90;;
65613;SDS011;52283;49.292;10.572;2022-10-31T03:53:11;11.18;;;6.68;;
65613;SDS011;52283;49.292;10.572;2022-10-31T03:55:44;10.30;;;5.47;;
65613;SDS011;52283;49.292;10.572;2022-10-31T03:58:16;14.98;;;6.07;;
65613;SDS011;52283;49.292;10.572;2022-10-31T04:00:47;8.25;;;5.40;;
65613;SDS011;52283;49.292;10.572;2022-10-31T04:03:19;11.50;;;6.03;;
65613;SDS011;52283;49.292;10.572;2022-10-31T04:05:49;11.75;;;6.68;;
65613;SDS011;52283;49.292;10.572;2022-10-31T04:08:20;12.85;;;6.82;;
65613;SDS011;52283;49.292;10.572;2022-10-31T04:10:50;11.55;;;6.50;;
65613;SDS011;52283;49.292;10.572;2022-10-31T04:13:19;11.93;;;5.90;;
65613;SDS011;52283;49.292;10.572;2022-10-31T04:15:49;10.05;;;6.07;;
65613;SDS011;52283;49.292;10.572;2022-10-31T04:18:18;16.27;;;7.13;;
65613;SDS011;52283;49.292;10.572;2022-10-31T04:20:44;14.93;;;6.38;;
65613;SDS011;52283;49.292;10.572;2022-10-31T04:23:14;15.77;;;6.15;;
65613;SDS011;52283;49.292;10.572;2022-10-31T04:25:46;9.65;;;6.15;;
65613;SDS011;52283;49.292;10.572;2022-10-31T04:28:13;9.65;;;6.10;;
65613;SDS011;52283;49.292;10.572;2022-10-31T04:30:39;12.48;;;7.10;;
65613;SDS011;52283;49.292;10.572;2022-10-31T04:33:06;10.77;;;5.80;;
65613;SDS011;52283;49.292;10.572;2022-10-31T04:35:32;12.55;;;6.65;;
65613;SDS011;52283;49.292;10.572;2022-10-31T04:37:59;12.43;;;6.63;;
65613;SDS011;52283;49.292;10.572;2022-10-31T04:40:25;13.00;;;6.00;;
65613;SDS011;52283;49.292;10.572;2022-10-31T04:42:53;11.10;;;6.63;;
65613;SDS011;52283;49.292;10.572;2022-10-31T04:45:19;13.85;;;6.38;;
65613;SDS011;52283;49.292;10.572;2022-10-31T04:47:46;9.07;;;6.07;;
65613;SDS011;52283;49.292;10.572;2022-10-31T04:50:12;11.15;;;6.75;;
65613;SDS011;52283;49.292;10.572;2022-10-31T04:52:39;11.80;;;5.93;;
65613;SDS011;52283;49.292;10.572;2022-10-31T04:55:06;11.38;;;5.05;;
65613;SDS011;52283;49.292;10.572;2022-10-31T04:57:39;10.68;;;6.22;;
65613;SDS011;52283;49.292;10.572;2022-10-31T05:00:08;8.95;;;5.10;;
65613;SDS011;52283;49.292;10.572;2022-10-31T05:02:42;10.32;;;5.38;;
65613;SDS011;52283;49.292;10.572;2022-10-31T05:05:09;8.35;;;5.47;;
65613;SDS011;52283;49.292;10.572;2022-10-31T05:07:37;9.85;;;6.03;;
65613;SDS011;52283;49.292;10.572;2022-10-31T05:10:04;16.77;;;6.95;;
65613;SDS011;52283;49.292;10.572;2022-10-31T05:12:31;11.73;;;5.25;;
65613;SDS011;52283;49.292;10.572;2022-10-31T05:14:58;10.20;;;6.55;;
65613;SDS011;52283;49.292;10.572;2022-10-31T05:17:26;10.50;;;5.72;;
65613;SDS011;52283;49.292;10.572;2022-10-31T05:19:52;13.75;;;5.72;;
65613;SDS011;52283;49.292;10.572;2022-10-31T05:22:18;7.97;;;4.80;;
65613;SDS011;52283;49.292;10.572;2022-10-31T05:24:45;6.90;;;5.25;;
65613;SDS011;52283;49.292;10.572;2022-10-31T05:27:11;9.68;;;4.63;;
65613;SDS011;52283;49.292;10.572;2022-10-31T05:29:38;12.18;;;5.43;;
65613;SDS011;52283;49.292;10.572;2022-10-31T05:32:04;6.72;;;4.57;;
65613;SDS011;52283;49.292;10.572;2022-10-31T05:34:32;6.35;;;5.03;;
65613;SDS011;52283;49.292;10.572;2022-10-31T05:36:58;8.88;;;5.43;;
65613;SDS011;52283;49.292;10.572;2022-10-31T05:39:25;9.13;;;4.70;;
65613;SDS011;52283;49.292;10.572;2022-10-31T05:41:51;7.25;;;4.53;;
65613;SDS011;52283;49.292;10.572;2022-10-31T05:44:18;7.75;;;4.80;;
65613;SDS011;52283;49.292;10.572;2022-10-31T05:46:45;7.03;;;4.10;;
65613;SDS011;52283;49.292;10.572;2022-10-31T05:49:12;8.25;;;4.50;;
65613;SDS011;52283;49.292;10.572;2022-10-31T05:51:40;9.02;;;4.97;;
65613;SDS011;52283;49.292;10.572;2022-10-31T05:54:06;8.90;;;5.10;;
65613;SDS011;52283;49.292;10.572;2022-10-31T05:56:33;7.47;;;5.22;;
65613;SDS011;52283;49.292;10.572;2022-10-31T05:58:59;7.38;;;5.75;;
65613;SDS011;52283;49.292;10.572;2022-10-31T06:01:25;9.43;;;5.93;;
65613;SDS011;52283;49.292;10.572;2022-10-31T06:03:52;11.05;;;5.43;;
65613;SDS011;52283;49.292;10.572;2022-10-31T06:06:19;7.05;;;6.32;;
65613;SDS011;52283;49.292;10.572;2022-10-31T06:08:46;8.15;;;5.10;;
65613;SDS011;52283;49.292;10.572;2022-10-31T06:11:13;8.23;;;4.93;;
65613;SDS011;52283;49.292;10.572;2022-10-31T06:13:39;7.55;;;5.00;;
65613;SDS011;52283;49.292;10.572;2022-10-31T06:16:06;5.72;;;4.60;;
65613;SDS011;52283;49.292;10.572;2022-10-31T06:18:32;6.25;;;4.93;;
65613;SDS011;52283;49.292;10.572;2022-10-31T06:20:59;7.22;;;5.25;;
65613;SDS011;52283;49.292;10.572;2022-10-31T06:23:25;10.65;;;5.15;;
65613;SDS011;52283;49.292;10.572;2022-10-31T06:25:53;11.68;;;5.93;;
65613;SDS011;52283;49.292;10.572;2022-10-31T06:28:20;14.32;;;6.18;;
65613;SDS011;52283;49.292;10.572;2022-10-31T06:30:47;8.43;;;4.57;;
65613;SDS011;52283;49.292;10.572;2022-10-31T06:33:13;11.77;;;5.40;;
65613;SDS011;52283;49.292;10.572;2022-10-31T06:35:44;8.93;;;5.22;;
65613;SDS011;52283;49.292;10.572;2022-10-31T06:40:37;12.18;;;4.72;;
65613;SDS011;52283;49.292;10.572;2022-10-31T06:43:05;7.88;;;5.57;;
65613;SDS011;52283;49.292;10.572;2022-10-31T06:45:31;6.97;;;5.25;;
65613;SDS011;52283;49.292;10.572;2022-10-31T06:47:58;6.47;;;4.93;;
65613;SDS011;52283;49.292;10.572;2022-10-31T06:50:24;10.32;;;5.30;;
65613;SDS011;52283;49.292;10.572;2022-10-31T06:52:51;13.30;;;4.80;;
65613;SDS011;52283;49.292;10.572;2022-10-31T06:55:17;8.57;;;5.03;;
65613;SDS011;52283;49.292;10.572;2022-10-31T06:57:49;7.28;;;5.55;;
65613;SDS011;52283;49.292;10.572;2022-10-31T07:00:17;11.77;;;5.93;;
65613;SDS011;52283;49.292;10.572;2022-10-31T07:02:52;10.55;;;5.22;;
65613;SDS011;52283;49.292;10.572;2022-10-31T07:05:19;6.65;;;5.55;;
65613;SDS011;52283;49.292;10.572;2022-10-31T07:07:45;13.00;;;5.47;;
65613;SDS011;52283;49.292;10.572;2022-10-31T07:10:12;9.90;;;5.65;;
65613;SDS011;52283;49.292;10.572;2022-10-31T07:12:38;10.15;;;5.30;;
65613;SDS011;52283;49.292;10.572;2022-10-31T07:15:06;11.13;;;5.85;;
65613;SDS011;52283;49.292;10.572;2022-10-31T07:17:34;9.50;;;4.75;;
65613;SDS011;52283;49.292;10.572;2022-10-31T07:20:01;8.20;;;5.20;;
65613;SDS011;52283;49.292;10.572;2022-10-31T07:22:31;10.30;;;5.35;;
65613;SDS011;52283;49.292;10.572;2022-10-31T07:24:58;9.23;;;5.40;;
65613;SDS011;52283;49.292;10.572;2022-10-31T07:27:25;7.50;;;5.28;;
65613;SDS011;52283;49.292;10.572;2022-10-31T07:29:51;12.35;;;5.85;;
65613;SDS011;52283;49.292;10.572;2022-10-31T07:32:18;9.88;;;5.80;;
65613;SDS011;52283;49.292;10.572;2022-10-31T07:34:45;11.20;;;5.90;;
65613;SDS011;52283;49.292;10.572;2022-10-31T07:37:12;17.60;;;6.50;;
65613;SDS011;52283;49.292;10.572;2022-10-31T07:39:38;9.40;;;5.85;;
65613;SDS011;52283;49.292;10.572;2022-10-31T07:42:05;10.45;;;5.90;;
65613;SDS011;52283;49.292;10.572;2022-10-31T07:44:31;12.73;;;6.20;;
65613;SDS011;52283;49.292;10.572;2022-10-31T07:46:57;6.97;;;5.95;;
65613;SDS011;52283;49.292;10.572;2022-10-31T07:49:24;10.05;;;6.57;;
65613;SDS011;52283;49.292;10.572;2022-10-31T07:51:52;8.73;;;5.88;;
65613;SDS011;52283;49.292;10.572;2022-10-31T07:54:18;12.65;;;6.60;;
65613;SDS011;52283;49.292;10.572;2022-10-31T07:56:45;10.18;;;5.75;;
65613;SDS011;52283;49.292;10.572;2022-10-31T07:59:12;7.05;;;5.05;;
65613;SDS011;52283;49.292;10.572;2022-10-31T08:01:38;17.63;;;6.50;;
65613;SDS011;52283;49.292;10.572;2022-10-31T08:04:05;14.57;;;6.45;;
65613;SDS011;52283;49.292;10.572;2022-10-31T08:06:31;14.77;;;5.47;;
65613;SDS011;52283;49.292;10.572;2022-10-31T08:09:00;11.05;;;6.00;;
65613;SDS011;52283;49.292;10.572;2022-10-31T08:11:27;9.88;;;5.90;;
65613;SDS011;52283;49.292;10.572;2022-10-31T08:13:53;10.15;;;6.40;;
65613;SDS011;52283;49.292;10.572;2022-10-31T08:16:20;12.27;;;6.82;;
65613;SDS011;52283;49.292;10.572;2022-10-31T08:18:46;11.43;;;6.55;;
65613;SDS011;52283;49.292;10.572;2022-10-31T08:21:12;15.05;;;6.47;;
65613;SDS011;52283;49.292;10.572;2022-10-31T08:23:39;13.50;;;6.63;;
65613;SDS011;52283;49.292;10.572;2022-10-31T08:26:07;16.55;;;6.20;;
65613;SDS011;52283;49.292;10.572;2022-10-31T08:28:33;12.02;;;6.53;;
65613;SDS011;52283;49.292;10.572;2022-10-31T08:30:59;13.98;;;7.00;;
65613;SDS011;52283;49.292;10.572;2022-10-31T08:33:26;15.40;;;6.82;;
65613;SDS011;52283;49.292;10.572;2022-10-31T08:35:52;14.48;;;6.50;;
65613;SDS011;52283;49.292;10.572;2022-10-31T08:38:19;13.10;;;7.07;;
65613;SDS011;52283;49.292;10.572;2022-10-31T08:40:47;10.38;;;6.45;;
65613;SDS011;52283;49.292;10.572;2022-10-31T08:43:16;14.48;;;7.30;;
65613;SDS011;52283;49.292;10.572;2022-10-31T08:45:44;17.88;;;8.15;;
65613;SDS011;52283;49.292;10.572;2022-10-31T08:48:14;14.60;;;8.18;;
65613;SDS011;52283;49.292;10.572;2022-10-31T08:50:42;12.85;;;8.50;;
65613;SDS011;52283;49.292;10.572;2022-10-31T08:53:11;13.02;;;7.85;;
65613;SDS011;52283;49.292;10.572;2022-10-31T08:55:39;11.82;;;9.25;;
65613;SDS011;52283;49.292;10.572;2022-10-31T08:58:07;15.30;;;8.57;;
65613;SDS011;52283;49.292;10.572;2022-10-31T09:00:37;13.73;;;7.43;;
65613;SDS011;52283;49.292;10.572;2022-10-31T09:03:04;10.50;;;7.90;;
65613;SDS011;52283;49.292;10.572;2022-10-31T09:05:32;12.45;;;7.85;;
65613;SDS011;52283;49.292;10.572;2022-10-31T09:08:00;11.70;;;7.60;;
65613;SDS011;52283;49.292;10.572;2022-10-31T09:10:28;13.15;;;8.40;;
65613;SDS011;52283;49.292;10.572;2022-10-31T09:12:55;12.52;;;7.70;;
65613;SDS011;52283;49.292;10.572;2022-10-31T09:15:22;16.60;;;8.77;;
65613;SDS011;52283;49.292;10.572;2022-10-31T09:17:50;17.23;;;8.52;;
65613;SDS011;52283;49.292;10.572;2022-10-31T09:20:16;11.38;;;7.88;;
65613;SDS011;52283;49.292;10.572;2022-10-31T09:22:43;11.82;;;7.90;;
65613;SDS011;52283;49.292;10.572;2022-10-31T09:25:09;16.33;;;8.32;;
65613;SDS011;52283;49.292;10.572;2022-10-31T09:27:36;13.95;;;7.75;;
65613;SDS011;52283;49.292;10.572;2022-10-31T09:30:03;16.27;;;7.75;;
65613;SDS011;52283;49.292;10.572;2022-10-31T09:32:30;12.00;;;6.43;;
65613;SDS011;52283;49.292;10.572;2022-10-31T09:34:57;9.25;;;6.70;;
65613;SDS011;52283;49.292;10.572;2022-10-31T09:37:24;11.02;;;7.10;;
65613;SDS011;52283;49.292;10.572;2022-10-31T09:39:50;8.18;;;6.43;;
65613;SDS011;52283;49.292;10.572;2022-10-31T09:42:23;13.02;;;7.47;;
65613;SDS011;52283;49.292;10.572;2022-10-31T09:45:13;15.80;;;8.65;;
65613;SDS011;52283;49.292;10.572;2022-10-31T09:47:48;11.23;;;7.55;;
65613;SDS011;52283;49.292;10.572;2022-10-31T09:50:22;11.95;;;7.45;;
65613;SDS011;52283;49.292;10.572;2022-10-31T09:52:54;10.20;;;5.85;;
65613;SDS011;52283;49.292;10.572;2022-10-31T09:55:26;9.55;;;6.88;;
65613;SDS011;52283;49.292;10.572;2022-10-31T09:58:01;14.60;;;8.18;;
65613;SDS011;52283;49.292;10.572;2022-10-31T10:00:28;11.15;;;7.00;;
65613;SDS011;52283;49.292;10.572;2022-10-31T10:02:57;10.18;;;6.72;;
65613;SDS011;52283;49.292;10.572;2022-10-31T10:05:30;16.33;;;7.35;;
65613;SDS011;52283;49.292;10.572;2022-10-31T10:08:00;11.25;;;6.85;;
65613;SDS011;52283;49.292;10.572;2022-10-31T10:10:37;15.68;;;7.55;;
65613;SDS011;52283;49.292;10.572;2022-10-31T10:13:22;14.75;;;8.13;;
65613;SDS011;52283;49.292;10.572;2022-10-31T10:16:05;18.73;;;8.82;;
65613;SDS011;52283;49.292;10.572;2022-10-31T10:18:47;17.85;;;7.88;;
65613;SDS011;52283;49.292;10.572;2022-10-31T10:21:28;13.18;;;7.32;;
65613;SDS011;52283;49.292;10.572;2022-10-31T10:24:08;19.45;;;7.90;;
65613;SDS011;52283;49.292;10.572;2022-10-31T10:26:50;8.93;;;6.57;;
65613;SDS011;52283;49.292;10.572;2022-10-31T10:29:29;17.73;;;7.70;;
65613;SDS011;52283;49.292;10.572;2022-10-31T10:32:01;15.45;;;7.55;;
65613;SDS011;52283;49.292;10.572;2022-10-31T10:34:33;14.25;;;6.97;;
65613;SDS011;52283;49.292;10.572;2022-10-31T10:37:05;12.00;;;7.72;;
65613;SDS011;52283;49.292;10.572;2022-10-31T10:39:38;11.25;;;6.22;;
65613;SDS011;52283;49.292;10.572;2022-10-31T10:42:09;13.02;;;6.72;;
65613;SDS011;52283;49.292;10.572;2022-10-31T10:44:55;10.32;;;6.10;;
65613;SDS011;52283;49.292;10.572;2022-10-31T10:47:41;10.65;;;6.75;;
65613;SDS011;52283;49.292;10.572;2022-10-31T10:50:11;12.20;;;6.07;;
65613;SDS011;52283;49.292;10.572;2022-10-31T10:52:47;12.23;;;6.15;;
65613;SDS011;52283;49.292;10.572;2022-10-31T10:55:26;12.48;;;5.22;;
65613;SDS011;52283;49.292;10.572;2022-10-31T10:58:00;14.27;;;5.55;;
65613;SDS011;52283;49.292;10.572;2022-10-31T11:00:29;21.35;;;7.57;;
65613;SDS011;52283;49.292;10.572;2022-10-31T11:02:57;13.05;;;5.63;;
65613;SDS011;52283;49.292;10.572;2022-10-31T11:05:25;9.18;;;6.28;;
65613;SDS011;52283;49.292;10.572;2022-10-31T11:07:57;12.85;;;6.28;;
65613;SDS011;52283;49.292;10.572;2022-10-31T11:10:24;10.73;;;6.47;;
65613;SDS011;52283;49.292;10.572;2022-10-31T11:12:58;19.13;;;5.78;;
65613;SDS011;52283;49.292;10.572;2022-10-31T11:15:28;14.30;;;7.03;;
65613;SDS011;52283;49.292;10.572;2022-10-31T11:17:57;12.45;;;6.50;;
65613;SDS011;52283;49.292;10.572;2022-10-31T11:20:34;10.18;;;5.75;;
65613;SDS011;52283;49.292;10.572;2022-10-31T11:23:04;10.73;;;5.65;;
65613;SDS011;52283;49.292;10.572;2022-10-31T11:25:47;8.68;;;5.55;;
65613;SDS011;52283;49.292;10.572;2022-10-31T11:28:16;16.73;;;5.47;;
65613;SDS011;52283;49.292;10.572;2022-10-31T11:30:43;12.32;;;5.00;;
65613;SDS011;52283;49.292;10.572;2022-10-31T11:33:14;15.00;;;5.00;;
65613;SDS011;52283;49.292;10.572;2022-10-31T11:35:45;13.98;;;4.93;;
65613;SDS011;52283;49.292;10.572;2022-10-31T11:38:16;15.38;;;5.20;;
65613;SDS011;52283;49.292;10.572;2022-10-31T11:40:52;13.93;;;5.05;;
65613;SDS011;52283;49.292;10.572;2022-10-31T11:43:20;11.05;;;3.70;;
65613;SDS011;52283;49.292;10.572;2022-10-31T11:45:47;11.35;;;3.08;;
65613;SDS011;52283;49.292;10.572;2022-10-31T11:48:15;6.57;;;4.20;;
65613;SDS011;52283;49.292;10.572;2022-10-31T11:50:47;7.90;;;2.78;;
65613;SDS011;52283;49.292;10.572;2022-10-31T11:53:17;5.40;;;3.45;;
65613;SDS011;52283;49.292;10.572;2022-10-31T11:56:03;7.68;;;2.63;;
65613;SDS011;52283;49.292;10.572;2022-10-31T11:58:31;9.75;;;2.95;;
65613;SDS011;52283;49.292;10.572;2022-10-31T12:00:58;7.05;;;2.17;;
65613;SDS011;52283;49.292;10.572;2022-10-31T12:03:32;8.18;;;2.47;;
65613;SDS011;52283;49.292;10.572;2022-10-31T12:06:06;9.15;;;2.30;;
65613;SDS011;52283;49.292;10.572;2022-10-31T12:08:38;13.73;;;3.58;;
65613;SDS011;52283;49.292;10.572;2022-10-31T12:11:08;7.00;;;2.47;;
65613;SDS011;52283;49.292;10.572;2022-10-31T12:13:42;12.18;;;3.50;;
65613;SDS011;52283;49.292;10.572;2022-10-31T12:16:22;11.68;;;2.42;;
65613;SDS011;52283;49.292;10.572;2022-10-31T12:18:59;12.10;;;2.78;;
65613;SDS011;52283;49.292;10.572;2022-10-31T12:24:58;8.10;;;2.70;;
65613;SDS011;52283;49.292;10.572;2022-10-31T12:27:40;6.00;;;2.53;;
65613;SDS011;52283;49.292;10.572;2022-10-31T12:30:23;7.57;;;3.53;;
65613;SDS011;52283;49.292;10.572;2022-10-31T12:35:55;5.93;;;2.05;;
65613;SDS011;52283;49.292;10.572;2022-10-31T12:41:29;12.15;;;2.90;;
65613;SDS011;52283;49.292;10.572;2022-10-31T12:44:05;9.13;;;2.47;;
65613;SDS011;52283;49.292;10.572;2022-10-31T12:46:47;7.65;;;3.30;;
65613;SDS011;52283;49.292;10.572;2022-10-31T12:49:31;8.55;;;2.67;;
65613;SDS011;52283;49.292;10.572;2022-10-31T12:52:23;6.38;;;2.40;;
65613;SDS011;52283;49.292;10.572;2022-10-31T12:55:00;4.03;;;2.63;;
65613;SDS011;52283;49.292;10.572;2022-10-31T12:57:38;15.13;;;3.28;;
65613;SDS011;52283;49.292;10.572;2022-10-31T13:00:11;8.60;;;3.17;;
65613;SDS011;52283;49.292;10.572;2022-10-31T13:02:42;10.88;;;3.38;;
65613;SDS011;52283;49.292;10.572;2022-10-31T13:05:13;9.05;;;3.55;;
65613;SDS011;52283;49.292;10.572;2022-10-31T13:07:47;6.53;;;2.63;;
65613;SDS011;52283;49.292;10.572;2022-10-31T13:10:19;6.45;;;2.13;;
65613;SDS011;52283;49.292;10.572;2022-10-31T13:12:51;5.10;;;2.55;;
65613;SDS011;52283;49.292;10.572;2022-10-31T13:15:23;9.10;;;3.20;;
65613;SDS011;52283;49.292;10.572;2022-10-31T13:17:53;5.60;;;2.80;;
65613;SDS011;52283;49.292;10.572;2022-10-31T13:20:24;14.77;;;3.78;;
65613;SDS011;52283;49.292;10.572;2022-10-31T13:22:56;12.23;;;3.10;;
65613;SDS011;52283;49.292;10.572;2022-10-31T13:25:28;10.52;;;3.63;;
65613;SDS011;52283;49.292;10.572;2022-10-31T13:28:00;10.52;;;3.10;;
65613;SDS011;52283;49.292;10.572;2022-10-31T13:32:59;18.75;;;3.63;;
65613;SDS011;52283;49.292;10.572;2022-10-31T13:35:32;10.30;;;3.78;;
65613;SDS011;52283;49.292;10.572;2022-10-31T13:38:09;9.57;;;3.13;;
65613;SDS011;52283;49.292;10.572;2022-10-31T13:40:44;9.43;;;2.78;;
65613;SDS011;52283;49.292;10.572;2022-10-31T13:43:22;9.38;;;2.42;;
65613;SDS011;52283;49.292;10.572;2022-10-31T13:45:55;8.13;;;2.85;;
65613;SDS011;52283;49.292;10.572;2022-10-31T13:48:35;7.68;;;3.47;;
65613;SDS011;52283;49.292;10.572;2022-10-31T13:51:06;9.05;;;3.10;;
65613;SDS011;52283;49.292;10.572;2022-10-31T13:53:35;8.88;;;2.65;;
65613;SDS011;52283;49.292;10.572;2022-10-31T13:56:03;5.63;;;2.42;;
65613;SDS011;52283;49.292;10.572;2022-10-31T13:58:56;12.55;;;3.47;;
65613;SDS011;52283;49.292;10.572;2022-10-31T14:01:25;11.35;;;3.50;;
65613;SDS011;52283;49.292;10.572;2022-10-31T14:03:58;8.82;;;3.00;;
65613;SDS011;52283;49.292;10.572;2022-10-31T14:06:41;5.93;;;3.35;;
65613;SDS011;52283;49.292;10.572;2022-10-31T14:09:17;10.40;;;3.05;;
65613;SDS011;52283;49.292;10.572;2022-10-31T14:11:46;6.78;;;2.42;;
65613;SDS011;52283;49.292;10.572;2022-10-31T14:14:15;8.15;;;2.72;;
65613;SDS011;52283;49.292;10.572;2022-10-31T14:16:44;4.97;;;2.50;;
65613;SDS011;52283;49.292;10.572;2022-10-31T14:19:15;8.48;;;2.50;;
65613;SDS011;52283;49.292;10.572;2022-10-31T14:21:44;11.65;;;3.35;;
65613;SDS011;52283;49.292;10.572;2022-10-31T14:24:15;10.02;;;3.33;;
65613;SDS011;52283;49.292;10.572;2022-10-31T14:26:57;8.93;;;3.17;;
65613;SDS011;52283;49.292;10.572;2022-10-31T14:29:27;10.15;;;3.25;;
65613;SDS011;52283;49.292;10.572;2022-10-31T14:31:56;9.48;;;3.10;;
65613;SDS011;52283;49.292;10.572;2022-10-31T14:34:27;9.73;;;3.53;;
65613;SDS011;52283;49.292;10.572;2022-10-31T14:37:07;8.57;;;3.75;;
65613;SDS011;52283;49.292;10.572;2022-10-31T14:39:44;11.77;;;3.85;;
65613;SDS011;52283;49.292;10.572;2022-10-31T14:42:22;7.32;;;3.50;;
65613;SDS011;52283;49.292;10.572;2022-10-31T14:45:16;9.15;;;3.75;;
65613;SDS011;52283;49.292;10.572;2022-10-31T14:47:55;4.10;;;3.00;;
65613;SDS011;52283;49.292;10.572;2022-10-31T14:50:35;8.60;;;3.33;;
65613;SDS011;52283;49.292;10.572;2022-10-31T14:53:08;10.77;;;3.22;;
65613;SDS011;52283;49.292;10.572;2022-10-31T14:55:41;10.23;;;3.88;;
65613;SDS011;52283;49.292;10.572;2022-10-31T14:58:13;14.43;;;3.80;;
65613;SDS011;52283;49.292;10.572;2022-10-31T15:00:45;9.13;;;3.67;;
65613;SDS011;52283;49.292;10.572;2022-10-31T15:03:12;9.02;;;3.35;;
65613;SDS011;52283;49.292;10.572;2022-10-31T15:05:42;13.40;;;4.87;;
65613;SDS011;52283;49.292;10.572;2022-10-31T15:08:13;9.38;;;4.63;;